ENKR

Kirkenes , Høybuktmoen Airport

Kirkenes, Norway
TAF ENKR 230500Z 2306/2315 18005KT 9999 FEW012TCU SCT030 TEMPO 2306/2315 03010KT 1000 SHSNGS VV007
Issued Valid From Valid To
Jan-23 @ 05:00 UTC
(2 hours ago)
Jan-23 @ 06:00 UTC
(an hour ago)
Jan-23 @ 15:00 UTC
(in 8 hours)
Jan-23 @ 06:00 to Jan-23 @ 15:00
TAF ENKR 230500Z 2306/2315 18005KT 9999 FEW012TCU SCT030
Wind Visibility Clouds
180° at 5 knots 10,000+ meters
  • Few at 1,200' AGL
  • Scattered at 3,000' AGL
Temporary Jan-23 @ 06:00 to Jan-23 @ 15:00
TEMPO 2306/2315 03010KT 1000 SHSNGS VV007
Wind Visibility Clouds Conditions
30° at 10 knots 998 meters
  • Vertical visibility at 700' AGL
  • Snow
  • Small hail
TAF ENKR 230500Z 2306/2315 18005KT 9999 FEW012TCU SCT030 TEMPO 2306/2315 03010KT 1000 SHSNGS VV007
Issued Jan-23 @ 05:00 UTC
(2 hours ago)
Valid From Jan-23 @ 06:00 UTC
(an hour ago)
Valid To Jan-23 @ 15:00 UTC
(in 8 hours)
Jan-23 @ 06:00 - Jan-23 @ 15:00
Wind Visibility
180° at 5 knots 10,000+ meters
Clouds
  • Few at 1,200' AGL
  • Scattered at 3,000' AGL
Temporary Jan-23 @ 06:00 - Jan-23 @ 15:00
Wind Visibility
30° at 10 knots 998 meters
Clouds
  • Vertical visibility at 700' AGL
Conditions
  • Snow
  • Small hail